Time;durP1;ratioP1;P1;durP2;ratioP2;P2;SDS_P1;SDS_P2;PMS_P1;PMS_P2;Temp;Humidity;BMP_temperature;BMP_pressure;BME280_temperature;BME280_humidity;BME280_pressure;Samples;Min_cycle;Max_cycle;Signal;HPM_P1;HPM_P2
2022/02/12 00:01:25;;;;;;;16.00;7.97;;;;;;;;;;5199910;28;20049;-79
2022/02/12 00:03:58;;;;;;;16.13;7.97;;;;;;;;;;5191913;23;20231;-37
2022/02/12 00:06:31;;;;;;;14.55;7.68;;;;;;;;;;5132525;28;20038;-38
2022/02/12 00:09:04;;;;;;;14.10;7.47;;;;;;;;;;5110108;28;20526;-37
2022/02/12 00:11:36;;;;;;;13.07;6.65;;;;;;;;;;5110539;28;20054;-37
2022/02/12 00:14:09;;;;;;;16.55;7.57;;;;;;;;;;5113214;28;20425;-39
2022/02/12 00:16:42;;;;;;;16.15;7.72;;;;;;;;;;5121193;28;20046;-38
2022/02/12 00:19:15;;;;;;;17.03;8.80;;;;;;;;;;5100993;28;20694;-39
2022/02/12 00:21:47;;;;;;;10.60;6.90;;;;;;;;;;5085632;28;20058;-38
2022/02/12 00:24:24;;;;;;;13.37;7.87;;;;;;;;;;5068636;28;20069;-39
2022/02/12 00:27:00;;;;;;;12.50;7.63;;;;;;;;;;5154241;28;20453;-76
2022/02/12 00:29:33;;;;;;;15.02;7.40;;;;;;;;;;5170784;28;20747;-77
2022/02/12 00:32:06;;;;;;;13.25;7.05;;;;;;;;;;5162686;28;20045;-80
2022/02/12 00:34:39;;;;;;;16.58;10.00;;;;;;;;;;5167176;28;20045;-79
2022/02/12 00:37:12;;;;;;;12.70;7.07;;;1.40;99.90;;;;;;5148007;28;20049;-78
2022/02/12 00:39:49;;;;;;;15.57;7.35;;;;;;;;;;5171900;28;20056;-77
2022/02/12 00:42:40;;;;;;;16.73;7.82;;;1.20;99.90;;;;;;5176035;28;20045;-78
2022/02/12 00:45:15;;;;;;;13.70;7.57;;;;;;;;;;5150860;28;20811;-81
2022/02/12 00:47:57;;;;;;;;;;;1.30;99.90;;;;;;5162266;28;20041;-81
2022/02/12 00:50:31;;;;;;;14.80;6.80;;;;;;;;;;5176156;28;20700;-77
2022/02/12 00:53:07;;;;;;;14.05;7.57;;;;;;;;;;5168787;28;20399;-76
2022/02/12 00:55:42;;;;;;;13.77;7.07;;;;;;;;;;5158149;28;20053;-78
2022/02/12 00:58:17;;;;;;;16.50;8.10;;;;;;;;;;5155868;28;20053;-79
2022/02/12 01:00:55;;;;;;;13.93;7.60;;;;;;;;;;5154789;28;20683;-79
2022/02/12 01:03:28;;;;;;;15.50;8.27;;;;;;;;;;5146238;28;20049;-78
2022/02/12 01:06:03;;;;;;;13.13;8.00;;;;;;;;;;5173359;28;20497;-78
2022/02/12 01:08:36;;;;;;;13.75;8.30;;;;;;;;;;5153714;28;20049;-74
2022/02/12 01:11:16;;;;;;;14.63;8.02;;;;;;;;;;5163271;28;20060;-74
2022/02/12 01:13:51;;;;;;;15.23;8.43;;;;;;;;;;5164530;28;20053;-74
2022/02/12 01:16:30;;;;;;;20.05;8.57;;;;;;;;;;5178065;28;20057;-74
2022/02/12 01:19:09;;;;;;;15.88;8.40;;;;;;;;;;5155707;28;20053;-74
2022/02/12 01:21:46;;;;;;;15.15;8.60;;;;;;;;;;5141787;28;20046;-74
2022/02/12 01:24:21;;;;;;;12.60;8.25;;;;;;;;;;5169539;28;20886;-74
2022/02/12 01:26:56;;;;;;;16.23;8.30;;;;;;;;;;5150244;28;20040;-75
2022/02/12 01:29:29;;;;;;;16.90;8.43;;;;;;;;;;5172455;28;20987;-74
2022/02/12 01:32:05;;;;;;;19.67;8.82;;;;;;;;;;5187173;28;20054;-75
2022/02/12 01:34:38;;;;;;;23.02;8.57;;;;;;;;;;5161004;28;20059;-74
2022/02/12 01:37:11;;;;;;;16.87;7.63;;;;;;;;;;5189704;28;20052;-75
2022/02/12 01:39:44;;;;;;;15.45;8.80;;;;;;;;;;5147692;28;20080;-74
2022/02/12 01:42:17;;;;;;;18.33;8.27;;;;;;;;;;5172967;28;20056;-74
2022/02/12 01:44:50;;;;;;;15.75;7.70;;;;;;;;;;5151513;28;20037;-74
2022/02/12 01:47:23;;;;;;;14.30;8.43;;;;;;;;;;5182051;28;20038;-74
2022/02/12 01:49:56;;;;;;;17.05;8.23;;;;;;;;;;5168193;28;20033;-76
2022/02/12 01:52:29;;;;;;;15.70;7.60;;;;;;;;;;5175597;28;20608;-76
2022/02/12 01:55:01;;;;;;;12.82;7.13;;;;;;;;;;5154553;28;20501;-76
2022/02/12 01:57:34;;;;;;;21.83;9.75;;;;;;;;;;5155774;28;20061;-75
2022/02/12 02:00:09;;;;;;;18.50;9.17;;;0.80;99.90;;;;;;5176219;28;20045;-75
2022/02/12 02:02:45;;;;;;;18.83;8.80;;;;;;;;;;5174287;28;20046;-76
2022/02/12 02:05:19;;;;;;;21.77;7.97;;;;;;;;;;5174583;28;22059;-75
2022/02/12 02:07:52;;;;;;;15.63;7.85;;;;;;;;;;5180251;28;20398;-75
2022/02/12 02:10:25;;;;;;;15.10;7.88;;;;;;;;;;5151541;28;20474;-76
2022/02/12 02:12:58;;;;;;;13.85;7.65;;;;;;;;;;5174113;28;20060;-76
2022/02/12 02:15:31;;;;;;;15.63;7.03;;;;;;;;;;5138610;28;20057;-76
2022/02/12 02:18:03;;;;;;;11.25;6.40;;;;;;;;;;5173690;28;20045;-75
2022/02/12 02:20:36;;;;;;;11.25;6.47;;;;;;;;;;5144491;28;20042;-75
2022/02/12 02:23:08;;;;;;;10.60;6.97;;;;;;;;;;5173288;28;20095;-75
2022/02/12 02:25:41;;;;;;;10.15;6.65;;;;;;;;;;5168559;28;21541;-76
2022/02/12 02:28:14;;;;;;;14.63;7.30;;;;;;;;;;5160152;28;20418;-74
2022/02/12 02:30:47;;;;;;;10.38;6.22;;;;;;;;;;5171415;28;20060;-73
2022/02/12 02:33:20;;;;;;;13.60;6.60;;;;;;;;;;5163987;28;20053;-74
2022/02/12 02:35:52;;;;;;;9.30;6.40;;;;;;;;;;5170355;28;20057;-75
2022/02/12 02:38:25;;;;;;;11.88;6.70;;;;;;;;;;5159965;28;20893;-74
2022/02/12 02:40:58;;;;;;;12.50;7.28;;;;;;;;;;5168602;28;20045;-74
2022/02/12 02:43:31;;;;;;;12.17;6.87;;;;;;;;;;5162445;28;20052;-73
2022/02/12 02:46:04;;;;;;;13.23;7.28;;;;;;;;;;5169260;28;20112;-74
2022/02/12 02:48:37;;;;;;;12.10;7.00;;;;;;;;;;5174419;28;20048;-74
2022/02/12 02:56:53;;;;;;;14.25;6.80;;;;;;;;;;5174907;28;20506;-74
2022/02/12 02:59:25;;;;;;;8.40;6.30;;;;;;;;;;5137372;28;20053;-74
2022/02/12 03:01:58;;;;;;;10.13;6.57;;;;;;;;;;5171100;28;20057;-75
2022/02/12 03:04:31;;;;;;;10.05;6.47;;;;;;;;;;5169783;28;20049;-74
2022/02/12 03:07:04;;;;;;;12.73;6.97;;;;;;;;;;5151712;28;20045;-74
2022/02/12 03:09:37;;;;;;;11.70;5.80;;;;;;;;;;5134454;28;20045;-75
2022/02/12 03:12:11;;;;;;;12.82;6.72;;;;;;;;;;5167536;28;20050;-74
2022/02/12 03:14:44;;;;;;;11.33;6.10;;;;;;;;;;5169126;28;20060;-74
2022/02/12 03:17:17;;;;;;;11.75;6.32;;;;;;;;;;5157103;28;20057;-74
2022/02/12 03:19:49;;;;;;;10.55;6.30;;;;;;;;;;5137019;28;25300;-74
2022/02/12 03:22:22;;;;;;;16.25;6.15;;;;;;;;;;5157978;28;21496;-74
2022/02/12 03:24:55;;;;;;;11.52;5.85;;;;;;;;;;5133466;28;20431;-75
2022/02/12 03:27:28;;;;;;;10.82;6.38;;;;;;;;;;5168193;28;20044;-74
2022/02/12 03:30:00;;;;;;;13.68;6.30;;;;;;;;;;5152766;28;20041;-75
2022/02/12 03:32:33;;;;;;;14.65;6.30;;;;;;;;;;5125245;28;20056;-74
2022/02/12 03:35:06;;;;;;;10.93;5.95;;;;;;;;;;5155184;28;20057;-74
2022/02/12 03:37:39;;;;;;;13.13;6.13;;;;;;;;;;5153699;28;20057;-75
2022/02/12 03:40:12;;;;;;;11.80;6.03;;;0.30;99.90;;;;;;5161461;28;20065;-75
2022/02/12 03:42:45;;;;;;;14.73;6.28;;;0.30;99.90;;;;;;5130790;28;20529;-75
2022/02/12 03:45:22;;;;;;;11.48;5.88;;;;;;;;;;5164762;28;20077;-74
2022/02/12 03:47:54;;;;;;;13.02;6.32;;;;;;;;;;5153432;28;20041;-75
2022/02/12 03:50:28;;;;;;;13.18;6.60;;;0.40;99.90;;;;;;5149012;28;20056;-75
2022/02/12 03:53:04;;;;;;;14.93;6.68;;;0.30;99.90;;;;;;5156232;28;20053;-75
2022/02/12 03:55:39;;;;;;;11.90;6.78;;;0.40;99.90;;;;;;5172268;28;20045;-75
2022/02/12 03:58:14;;;;;;;11.52;6.35;;;0.40;99.90;;;;;;5166984;28;20061;-76
2022/02/12 04:00:48;;;;;;;11.00;6.28;;;0.20;99.90;;;;;;5151031;28;20061;-74
2022/02/12 04:03:21;;;;;;;10.65;6.28;;;;;;;;;;5188842;28;20565;-74
2022/02/12 04:05:54;;;;;;;13.60;6.33;;;;;;;;;;5182832;28;20053;-74
2022/02/12 04:08:27;;;;;;;14.40;6.47;;;;;;;;;;5153119;28;20045;-74
2022/02/12 04:10:59;;;;;;;14.43;6.40;;;;;;;;;;5169681;28;20056;-74
2022/02/12 04:13:34;;;;;;;13.07;6.75;;;;;;;;;;5173010;28;20311;-74
2022/02/12 04:16:06;;;;;;;10.05;5.90;;;;;;;;;;5167594;28;20056;-74
2022/02/12 04:18:40;;;;;;;10.15;5.93;;;;;;;;;;5193272;28;20045;-74
2022/02/12 04:21:13;;;;;;;11.77;6.57;;;;;;;;;;5182953;28;20061;-74
2022/02/12 04:23:45;;;;;;;12.70;6.07;;;;;;;;;;5151341;28;20045;-74
2022/02/12 04:26:18;;;;;;;8.50;5.43;;;;;;;;;;5165268;28;20057;-74
2022/02/12 04:28:51;;;;;;;10.10;6.00;;;;;;;;;;5189646;28;20037;-74
2022/02/12 04:31:24;;;;;;;11.13;6.10;;;;;;;;;;5164239;28;20056;-74
2022/02/12 04:33:56;;;;;;;11.05;6.47;;;;;;;;;;5147108;28;20313;-74
2022/02/12 04:36:29;;;;;;;12.75;6.50;;;;;;;;;;5158934;28;20478;-74
2022/02/12 04:39:02;;;;;;;9.68;6.57;;;;;;;;;;5155924;28;20092;-74
2022/02/12 04:41:36;;;;;;;10.73;5.97;;;;;;;;;;5183233;28;20052;-74
2022/02/12 04:44:08;;;;;;;9.63;6.43;;;;;;;;;;5180068;28;20038;-74
2022/02/12 04:46:41;;;;;;;8.63;5.70;;;;;;;;;;5186436;28;20025;-74
2022/02/12 04:49:14;;;;;;;9.35;5.95;;;;;;;;;;5179551;28;20293;-74
2022/02/12 04:51:46;;;;;;;13.48;6.18;;;;;;;;;;5165036;28;20058;-74
2022/02/12 04:54:19;;;;;;;11.93;5.80;;;;;;;;;;5156519;28;20100;-74
2022/02/12 04:56:52;;;;;;;9.50;4.53;;;;;;;;;;5180494;28;20052;-74
2022/02/12 04:59:24;;;;;;;13.15;6.25;;;;;;;;;;5184335;28;20045;-74
2022/02/12 05:01:57;;;;;;;10.02;5.32;;;;;;;;;;5175357;28;20048;-74
2022/02/12 05:04:30;;;;;;;11.02;5.55;;;;;;;;;;5180399;28;20053;-74
2022/02/12 05:07:03;;;;;;;10.65;5.93;;;;;;;;;;5182156;28;20045;-75
2022/02/12 05:09:37;;;;;;;9.77;5.67;;;;;;;;;;5154050;28;20046;-74
2022/02/12 05:12:11;;;;;;;10.40;4.90;;;;;;;;;;5146575;28;20319;-74
2022/02/12 05:14:44;;;;;;;10.63;5.60;;;;;;;;;;5184475;28;20670;-74
2022/02/12 05:17:17;;;;;;;13.00;6.50;;;;;;;;;;5182286;28;20049;-74
2022/02/12 05:19:50;;;;;;;;;;;-0.30;99.90;;;;;;5180638;28;20709;-74
2022/02/12 05:22:26;;;;;;;10.55;5.47;;;;;;;;;;5179580;28;19928;-73
2022/02/12 05:24:59;;;;;;;9.40;5.57;;;;;;;;;;5184001;28;20754;-74
2022/02/12 05:27:32;;;;;;;9.52;5.60;;;;;;;;;;5179730;28;20070;-74
2022/02/12 05:30:05;;;;;;;9.77;5.97;;;;;;;;;;5170011;28;20062;-74
2022/02/12 05:32:38;;;;;;;9.18;4.65;;;;;;;;;;5180957;28;20043;-74
2022/02/12 05:35:11;;;;;;;11.27;5.75;;;;;;;;;;5177102;28;20057;-74
2022/02/12 05:37:44;;;;;;;12.20;6.20;;;;;;;;;;5171495;28;20042;-73
2022/02/12 05:40:16;;;;;;;10.13;6.63;;;;;;;;;;5152135;28;20049;-74
2022/02/12 05:42:49;;;;;;;10.02;6.18;;;;;;;;;;5167943;28;20064;-74
2022/02/12 05:45:22;;;;;;;11.82;5.90;;;;;;;;;;5188754;28;20049;-73
2022/02/12 05:47:55;;;;;;;9.80;5.35;;;;;;;;;;5179602;28;20784;-74
2022/02/12 05:50:29;;;;;;;11.88;5.53;;;;;;;;;;5147676;28;21605;-74
2022/02/12 05:53:01;;;;;;;7.90;4.80;;;;;;;;;;5168863;28;20050;-74
2022/02/12 05:55:34;;;;;;;10.53;5.73;;;;;;;;;;5159686;28;20065;-74
2022/02/12 05:58:07;;;;;;;8.70;5.70;;;;;;;;;;5177878;28;21516;-74
2022/02/12 06:00:40;;;;;;;12.77;6.03;;;;;;;;;;5160648;28;20058;-74
2022/02/12 06:03:13;;;;;;;13.45;6.25;;;;;;;;;;5185564;28;20041;-74
2022/02/12 06:05:46;;;;;;;12.30;5.95;;;;;;;;;;5152430;28;20405;-74
2022/02/12 06:08:19;;;;;;;8.85;5.53;;;;;;;;;;5184548;28;20057;-74
2022/02/12 06:10:53;;;;;;;10.82;5.93;;;;;;;;;;5151591;28;20646;-74
2022/02/12 06:13:25;;;;;;;8.82;5.18;;;;;;;;;;5175290;28;20049;-74
2022/02/12 06:15:58;;;;;;;9.97;5.00;;;;;;;;;;5186362;28;20625;-73
2022/02/12 06:18:31;;;;;;;10.18;6.03;;;;;;;;;;5149615;28;20049;-74
2022/02/12 06:21:06;;;;;;;9.00;5.03;;;;;;;;;;5156049;28;20041;-74
2022/02/12 06:23:40;;;;;;;9.82;5.60;;;;;;;;;;5176041;28;20573;-73
2022/02/12 06:26:13;;;;;;;8.50;5.75;;;;;;;;;;5157471;28;20049;-74
2022/02/12 06:28:45;;;;;;;10.40;5.77;;;;;;;;;;5179985;28;20697;-74
2022/02/12 06:31:18;;;;;;;12.90;6.78;;;;;;;;;;5133124;28;20312;-73
2022/02/12 06:33:51;;;;;;;10.57;5.18;;;;;;;;;;5157269;28;20040;-74
2022/02/12 06:36:23;;;;;;;10.83;6.30;;;;;;;;;;5150870;28;20053;-73
2022/02/12 06:38:56;;;;;;;10.88;6.00;;;;;;;;;;5176825;28;20056;-74
2022/02/12 06:41:29;;;;;;;9.95;5.47;;;;;;;;;;5163652;28;20844;-74
2022/02/12 06:44:02;;;;;;;10.53;6.53;;;;;;;;;;5149102;28;22529;-74
2022/02/12 06:46:35;;;;;;;11.18;6.03;;;;;;;;;;5179703;28;20045;-74
2022/02/12 06:49:08;;;;;;;13.17;6.23;;;;;;;;;;5152288;28;20060;-74
2022/02/12 06:51:43;;;;;;;10.40;6.35;;;;;;;;;;5168442;28;20296;-74
2022/02/12 06:54:16;;;;;;;13.23;6.65;;;;;;;;;;5181796;28;20053;-74
2022/02/12 06:56:49;;;;;;;10.70;6.73;;;;;;;;;;5166237;28;20511;-74
2022/02/12 06:59:21;;;;;;;11.95;6.75;;;;;;;;;;5164292;28;20304;-74
2022/02/12 07:01:54;;;;;;;11.68;7.20;;;;;;;;;;5156403;28;20050;-74
2022/02/12 07:04:30;;;;;;;11.75;6.47;;;;;;;;;;5180611;28;20046;-74
2022/02/12 07:07:02;;;;;;;12.52;6.45;;;;;;;;;;5176046;28;20049;-74
2022/02/12 07:09:35;;;;;;;16.87;8.43;;;;;;;;;;5186248;28;20041;-74
2022/02/12 07:12:08;;;;;;;18.98;8.15;;;;;;;;;;5150010;28;20048;-74
2022/02/12 07:14:41;;;;;;;17.65;7.97;;;;;;;;;;5158542;28;20425;-74
2022/02/12 07:17:20;;;;;;;16.75;7.80;;;;;;;;;;5177270;28;20053;-74
2022/02/12 07:19:53;;;;;;;12.83;7.17;;;;;;;;;;5176148;28;20593;-73
2022/02/12 07:22:26;;;;;;;18.10;8.25;;;;;;;;;;5166218;28;20525;-74
2022/02/12 07:24:59;;;;;;;17.60;8.77;;;;;;;;;;5153096;28;20056;-74
2022/02/12 07:27:31;;;;;;;20.80;8.40;;;;;;;;;;5180683;28;20072;-74
2022/02/12 07:30:06;;;;;;;14.30;7.85;;;-0.30;99.90;;;;;;5177441;28;20053;-75
2022/02/12 07:32:40;;;;;;;19.80;8.18;;;-0.10;99.90;;;;;;5152285;28;22673;-75
2022/02/12 07:35:14;;;;;;;20.15;8.32;;;-0.10;99.90;;;;;;5138667;28;20076;-74
2022/02/12 07:37:48;;;;;;;15.00;8.13;;;0.00;99.90;;;;;;5175114;28;20048;-74
2022/02/12 07:40:21;;;;;;;14.90;8.07;;;;;;;;;;5183258;28;20042;-75
2022/02/12 07:42:54;;;;;;;13.65;7.65;;;;;;;;;;5161939;28;20076;-74
2022/02/12 07:45:28;;;;;;;16.52;7.68;;;;;;;;;;5164708;28;20068;-74
2022/02/12 07:48:01;;;;;;;15.80;8.68;;;;;;;;;;5156386;28;20052;-74
2022/02/12 07:50:34;;;;;;;13.07;7.47;;;;;;;;;;5174302;28;20045;-74
2022/02/12 07:53:07;;;;;;;13.48;7.60;;;;;;;;;;5150470;28;20072;-74
2022/02/12 07:55:43;;;;;;;15.07;7.63;;;0.20;99.90;;;;;;5188468;28;20054;-74
2022/02/12 07:58:19;;;;;;;10.57;7.75;;;;;;;;;;5163250;28;20439;-74
2022/02/12 08:00:52;;;;;;;12.95;7.32;;;;;;;;;;5180651;28;20045;-74
2022/02/12 08:03:25;;;;;;;12.80;7.47;;;;;;;;;;5160612;28;20053;-74
2022/02/12 08:05:58;;;;;;;12.10;7.43;;;;;;;;;;5142173;28;20530;-74
2022/02/12 08:08:30;;;;;;;17.15;7.72;;;;;;;;;;5171376;28;20042;-74
2022/02/12 08:13:54;;;;;;;13.60;7.55;;;;;;;;;;5160014;28;20056;-75
2022/02/12 08:16:27;;;;;;;16.07;7.93;;;;;;;;;;5172192;28;20523;-75
2022/02/12 08:19:00;;;;;;;12.77;7.13;;;;;;;;;;5153085;28;20069;-74
2022/02/12 08:21:32;;;;;;;11.40;7.65;;;;;;;;;;5161268;28;20410;-75
2022/02/12 08:24:05;;;;;;;13.88;7.57;;;;;;;;;;5157646;28;20505;-75
2022/02/12 08:26:38;;;;;;;13.82;8.77;;;;;;;;;;5173553;28;20068;-75
2022/02/12 08:29:16;;;;;;;17.75;9.02;;;;;;;;;;5176051;28;20053;-75
2022/02/12 08:31:49;;;;;;;13.50;8.73;;;;;;;;;;5150292;28;20049;-74
2022/02/12 08:34:24;;;;;;;17.67;8.98;;;1.10;99.90;;;;;;5156822;28;20066;-75
2022/02/12 08:36:57;;;;;;;14.07;8.85;;;;;;;;;;5172184;28;20160;-76
2022/02/12 08:39:30;;;;;;;17.52;8.90;;;;;;;;;;5138951;28;20045;-77
2022/02/12 08:42:03;;;;;;;14.38;8.70;;;;;;;;;;5157083;28;20041;-76
2022/02/12 08:44:37;;;;;;;14.33;8.67;;;;;;;;;;5165145;28;20502;-78
2022/02/12 08:47:11;;;;;;;13.02;8.13;;;;;;;;;;5135738;28;20310;-77
2022/02/12 08:49:47;;;;;;;13.70;8.80;;;;;;;;;;5135812;28;20045;-77
2022/02/12 08:52:24;;;;;;;14.27;8.10;;;;;;;;;;5181357;28;20045;-77
2022/02/12 08:54:57;;;;;;;14.82;8.05;;;;;;;;;;5167359;28;20064;-79
2022/02/12 08:57:30;;;;;;;15.97;9.17;;;;;;;;;;5167800;28;20046;-79
2022/02/12 09:00:05;;;;;;;24.88;8.88;;;1.90;99.90;;;;;;5159761;28;20045;-77
2022/02/12 09:02:38;;;;;;;19.40;8.77;;;;;;;;;;5143988;28;20045;-78
2022/02/12 09:05:11;;;;;;;12.97;7.37;;;;;;;;;;5143812;28;20064;-78
2022/02/12 09:07:43;;;;;;;11.00;7.53;;;;;;;;;;5162674;28;20322;-78
2022/02/12 09:10:16;;;;;;;12.88;7.25;;;;;;;;;;5178246;28;20056;-77
2022/02/12 09:12:55;;;;;;;14.52;7.65;;;2.10;99.90;;;;;;5174563;28;20056;-77
2022/02/12 09:15:28;;;;;;;12.63;8.13;;;;;;;;;;5154651;28;20057;-79
2022/02/12 09:18:02;;;;;;;11.90;6.55;;;;;;;;;;5155205;28;20077;-78
2022/02/12 09:20:38;;;;;;;15.57;7.70;;;;;;;;;;5156779;28;20137;-77
2022/02/12 09:23:14;;;;;;;12.70;7.57;;;;;;;;;;5137304;28;20037;-76
2022/02/12 09:25:47;;;;;;;12.80;6.82;;;;;;;;;;5177235;28;20417;-77
2022/02/12 09:28:20;;;;;;;13.52;6.75;;;;;;;;;;5172546;28;20064;-76
2022/02/12 09:30:53;;;;;;;12.67;7.00;;;2.50;99.90;;;;;;5151004;28;20046;-78
2022/02/12 09:33:26;;;;;;;13.40;7.28;;;;;;;;;;5149766;28;20060;-76
2022/02/12 09:35:59;;;;;;;12.23;6.23;;;;;;;;;;5175844;28;20056;-76
2022/02/12 09:38:32;;;;;;;18.48;8.10;;;;;;;;;;5157203;28;20041;-77
2022/02/12 09:41:07;;;;;;;12.93;5.35;;;;;;;;;;5148908;28;20375;-76
2022/02/12 09:43:45;;;;;;;9.77;5.47;;;;;;;;;;5121768;28;20049;-77
2022/02/12 09:47:21;;;;;;;10.68;5.90;;;2.80;98.60;;;;;;5110062;28;20191;-78
2022/02/12 09:50:06;;;;;;;8.57;5.47;;;;;;;;;;5105262;28;20053;-78
2022/02/12 09:52:52;;;;;;;11.50;5.85;;;3.10;97.60;;;;;;5127553;28;20045;-78
2022/02/12 09:55:27;;;;;;;10.43;5.85;;;;;;;;;;5136791;28;20523;-77
2022/02/12 09:58:07;;;;;;;8.60;5.30;;;;;;;;;;5125934;28;20050;-78
2022/02/12 10:00:50;;;;;;;9.07;5.25;;;;;;;;;;5108449;28;20049;-79
2022/02/12 10:03:41;;;;;;;11.27;5.30;;;;;;;;;;5111980;28;20045;-79
2022/02/12 10:06:42;;;;;;;8.98;5.15;;;3.50;94.40;;;;;;5061810;28;20042;-78
2022/02/12 10:09:21;;;;;;;10.02;4.60;;;;;;;;;;5098586;28;20049;-78
2022/02/12 10:12:05;;;;;;;9.70;4.63;;;;;;;;;;5082672;28;20061;-78
2022/02/12 10:14:49;;;;;;;9.48;4.40;;;;;;;;;;5098884;28;20053;-78
2022/02/12 10:17:35;;;;;;;11.27;4.75;;;;;;;;;;5089675;28;20049;-77
2022/02/12 10:20:22;;;;;;;8.48;4.53;;;;;;;;;;5121710;28;20060;-78
2022/02/12 10:23:19;;;;;;;9.85;4.35;;;;;;;;;;5112208;28;20512;-79
2022/02/12 10:26:04;;;;;;;7.35;4.40;;;;;;;;;;5112151;28;20071;-78
2022/02/12 10:29:01;;;;;;;9.52;4.07;;;4.00;90.20;;;;;;5104542;28;21689;-78
2022/02/12 10:31:49;;;;;;;8.02;4.22;;;4.00;90.00;;;;;;5111435;28;20054;-79
2022/02/12 10:34:40;;;;;;;7.63;4.10;;;4.00;88.70;;;;;;5133517;28;20042;-78
2022/02/12 10:37:18;;;;;;;8.48;4.00;;;4.00;88.70;;;;;;5107604;28;20053;-78
2022/02/12 10:40:21;;;;;;;8.15;4.53;;;4.10;89.20;;;;;;5112767;28;20058;-78
2022/02/12 10:43:05;;;;;;;9.13;5.15;;;4.10;89.70;;;;;;5110091;28;20046;-80
2022/02/12 10:45:43;;;;;;;8.05;4.75;;;;;;;;;;5131981;28;21799;-78
2022/02/12 10:48:18;;;;;;;7.90;3.90;;;;;;;;;;5129806;28;20060;-78
2022/02/12 10:51:01;;;;;;;7.97;4.00;;;;;;;;;;5110202;28;22135;-78
2022/02/12 10:54:00;;;;;;;8.48;4.00;;;;;;;;;;5096109;28;20057;-79
2022/02/12 10:56:46;;;;;;;6.90;4.10;;;;;;;;;;5122534;28;20053;-78
2022/02/12 10:59:36;;;;;;;6.70;3.42;;;;;;;;;;5120118;28;20521;-78
2022/02/12 11:02:17;;;;;;;6.22;3.17;;;4.30;84.60;;;;;;5129800;28;20053;-78
2022/02/12 11:04:57;;;;;;;5.97;3.83;;;;;;;;;;5100167;28;20034;-79
2022/02/12 11:07:32;;;;;;;5.05;3.60;;;;;;;;;;5137277;28;20080;-79
2022/02/12 11:10:07;;;;;;;6.75;3.35;;;4.40;82.60;;;;;;5148087;28;20041;-77
2022/02/12 11:12:40;;;;;;;7.20;3.65;;;;;;;;;;5137678;28;20058;-78
2022/02/12 11:15:19;;;;;;;5.03;3.10;;;;;;;;;;5139886;28;20420;-77
2022/02/12 11:18:11;;;;;;;4.72;3.00;;;;;;;;;;5117547;28;20085;-77
2022/02/12 11:20:44;;;;;;;6.97;3.13;;;4.40;80.10;;;;;;5120988;28;20046;-78
2022/02/12 11:23:24;;;;;;;5.22;2.53;;;;;;;;;;5117433;28;20056;-79
2022/02/12 11:26:03;;;;;;;6.88;3.00;;;4.50;78.20;;;;;;5121214;28;20052;-76
2022/02/12 11:28:37;;;;;;;5.70;2.78;;;;;;;;;;5144944;28;21289;-76
2022/02/12 11:31:21;;;;;;;6.90;2.70;;;4.70;78.20;;;;;;5158256;28;20068;-76
2022/02/12 11:34:14;;;;;;;13.60;4.75;;;4.70;77.80;;;;;;5151865;28;20041;-77
2022/02/12 11:36:47;;;;;;;7.05;3.22;;;;;;;;;;5115817;28;20056;-77
2022/02/12 11:39:27;;;;;;;5.60;3.22;;;4.70;77.10;;;;;;5124545;28;20045;-77
2022/02/12 11:42:05;;;;;;;6.47;3.45;;;4.70;76.50;;;;;;5145114;28;20049;-79
2022/02/12 11:45:15;;;;;;;5.38;3.47;;;4.70;76.40;;;;;;5128307;28;20050;-78
2022/02/12 11:48:36;;;;;;;7.50;3.47;;;4.70;77.10;;;;;;5141324;28;20053;-77
2022/02/12 11:51:11;;;;;;;10.57;3.80;;;4.70;77.30;;;;;;5140005;28;20052;-78
2022/02/12 11:53:44;;;;;;;6.22;3.38;;;;;;;;;;5129433;28;20034;-77
2022/02/12 11:56:20;;;;;;;5.37;3.47;;;4.80;77.60;;;;;;5127015;28;20119;-78
2022/02/12 11:58:54;;;;;;;6.50;3.22;;;;;;;;;;5139315;28;20045;-78
2022/02/12 12:01:32;;;;;;;10.20;4.50;;;;;;;;;;5159033;28;20053;-78
2022/02/12 12:04:11;;;;;;;6.57;4.18;;;4.90;78.00;;;;;;5122196;28;20057;-78
2022/02/12 12:06:59;;;;;;;6.57;3.95;;;5.00;78.80;;;;;;5120200;28;20053;-79
2022/02/12 12:09:34;;;;;;;5.78;4.10;;;4.90;78.10;;;;;;5118677;28;20049;-79
2022/02/12 12:12:22;;;;;;;5.80;3.78;;;5.10;76.90;;;;;;5152452;28;20049;-78
2022/02/12 12:15:21;;;;;;;4.70;3.40;;;5.00;78.10;;;;;;5146676;28;20936;-79
2022/02/12 12:18:00;;;;;;;5.43;3.45;;;5.00;77.00;;;;;;5123224;28;20863;-78
2022/02/12 12:20:33;;;;;;;6.55;3.38;;;;;;;;;;5117607;28;20057;-78
2022/02/12 12:23:12;;;;;;;4.82;3.05;;;5.10;78.40;;;;;;5138023;28;20060;-80
2022/02/12 12:26:03;;;;;;;10.05;3.92;;;5.20;77.50;;;;;;5140059;28;21186;-79
2022/02/12 12:28:38;;;;;;;5.90;3.80;;;5.20;77.80;;;;;;5111726;28;20053;-78
2022/02/12 12:31:14;;;;;;;4.75;3.13;;;5.20;78.30;;;;;;5125110;28;20056;-78
2022/02/12 12:33:46;;;;;;;10.48;4.10;;;5.30;77.70;;;;;;5122146;28;20398;-78
2022/02/12 12:36:19;;;;;;;5.27;3.23;;;;;;;;;;5117742;28;20069;-79
2022/02/12 12:38:54;;;;;;;7.88;3.63;;;;;;;;;;5142406;28;20142;-78
2022/02/12 12:41:32;;;;;;;5.63;2.97;;;5.40;78.80;;;;;;5120320;28;21102;-79
2022/02/12 12:44:15;;;;;;;6.47;3.45;;;6.40;81.60;;;;;;5118543;28;20404;-77
2022/02/12 12:46:54;;;;;;;8.00;3.92;;;6.40;80.80;;;;;;5115916;28;20053;-77
2022/02/12 12:49:33;;;;;;;8.13;3.45;;;5.40;77.00;;;;;;5119278;28;20052;-77
2022/02/12 12:52:13;;;;;;;9.57;3.90;;;5.40;77.00;;;;;;5167348;28;20823;-76
2022/02/12 12:54:46;;;;;;;7.25;4.28;;;;;;;;;;5173425;28;20045;-77
2022/02/12 12:57:28;;;;;;;8.80;4.30;;;7.50;79.20;;;;;;5147932;28;20556;-77
2022/02/12 13:00:01;;;;;;;12.15;4.63;;;;;;;;;;5156404;28;21040;-77
2022/02/12 13:02:34;;;;;;;9.70;4.63;;;;;;;;;;5123308;28;21619;-78
2022/02/12 13:05:07;;;;;;;5.20;3.53;;;;;;;;;;4814593;28;10000449;-79
2022/02/12 13:07:46;;;;;;;6.20;3.80;;;6.40;81.80;;;;;;5164582;28;20975;-78
2022/02/12 13:10:35;;;;;;;5.03;3.17;;;8.90;82.40;;;;;;5158911;28;20060;-78
2022/02/12 13:13:16;;;;;;;6.47;3.70;;;6.60;80.00;;;;;;5097925;28;20045;-78
2022/02/12 13:19:51;;;;;;;5.78;3.63;;;;;;;;;;5136981;28;20045;-78
2022/02/12 13:22:36;;;;;;;6.78;3.65;;;5.60;77.20;;;;;;5161873;28;20363;-76
2022/02/12 13:25:15;;;;;;;4.88;3.20;;;5.60;77.90;;;;;;5135563;28;20052;-77
2022/02/12 13:27:49;;;;;;;5.57;3.70;;;5.70;78.90;;;;;;5161445;28;20052;-76
2022/02/12 13:30:24;;;;;;;9.43;3.78;;;5.40;76.10;;;;;;5135436;28;20076;-79
2022/02/12 13:32:58;;;;;;;7.68;4.07;;;6.80;77.00;;;;;;5153623;28;20046;-77
2022/02/12 13:35:38;;;;;;;7.22;4.20;;;5.40;75.70;;;;;;5126821;28;20073;-79
2022/02/12 13:38:12;;;;;;;9.77;4.13;;;5.40;77.30;;;;;;5130218;28;20048;-79
2022/02/12 13:40:44;;;;;;;9.60;3.75;;;7.30;77.60;;;;;;5137409;28;20585;-79
2022/02/12 13:43:20;;;;;;;5.47;3.72;;;5.70;77.10;;;;;;5155178;28;20414;-79
2022/02/12 13:45:57;;;;;;;5.10;3.97;;;5.70;77.20;;;;;;5129958;28;20052;-78
2022/02/12 13:48:43;;;;;;;8.30;3.75;;;7.50;77.90;;;;;;5159968;28;20053;-77
2022/02/12 13:51:17;;;;;;;9.00;4.45;;;;;;;;;;5148433;28;20045;-78
2022/02/12 13:53:52;;;;;;;;;;;5.80;75.60;;;;;;5157471;28;20053;-78
2022/02/12 13:56:37;;;;;;;8.80;4.07;;;7.20;77.90;;;;;;5147220;28;19924;-78
2022/02/12 13:59:09;;;;;;;11.98;3.70;;;5.90;76.70;;;;;;5152953;28;20058;-78
2022/02/12 14:01:42;;;;;;;6.43;3.75;;;7.00;78.20;;;;;;5140562;28;20570;-77
2022/02/12 14:04:14;;;;;;;6.63;3.83;;;5.60;76.70;;;;;;5142811;28;20057;-78
2022/02/12 14:06:53;;;;;;;8.10;4.25;;;6.10;77.50;;;;;;5125644;28;20048;-77
2022/02/12 14:09:25;;;;;;;9.32;4.13;;;6.10;77.60;;;;;;5119231;28;20380;-78
2022/02/12 14:11:58;;;;;;;9.27;5.38;;;6.10;77.80;;;;;;5133560;28;20053;-78
2022/02/12 14:14:30;;;;;;;6.22;4.28;;;5.70;77.40;;;;;;5124878;28;20045;-77
2022/02/12 14:17:03;;;;;;;10.73;5.30;;;6.20;78.30;;;;;;5162906;28;21030;-77
2022/02/12 14:19:35;;;;;;;10.23;4.57;;;6.30;77.30;;;;;;5146553;28;20080;-78
2022/02/12 14:22:07;;;;;;;11.93;5.20;;;6.20;76.90;;;;;;5162677;28;20510;-78
2022/02/12 14:24:40;;;;;;;11.63;5.25;;;6.00;75.40;;;;;;5160106;28;20049;-77
2022/02/12 14:27:12;;;;;;;9.40;5.15;;;6.20;77.10;;;;;;5164454;28;20041;-77
2022/02/12 14:29:45;;;;;;;9.85;4.68;;;5.40;76.90;;;;;;5167713;28;20632;-77
2022/02/12 14:32:18;;;;;;;7.47;4.70;;;6.20;77.40;;;;;;5168130;28;20045;-77
2022/02/12 14:34:51;;;;;;;8.10;4.63;;;6.20;76.90;;;;;;5160293;28;20637;-79
2022/02/12 14:37:24;;;;;;;7.82;4.88;;;6.30;77.40;;;;;;5169475;28;20050;-78
2022/02/12 14:39:56;;;;;;;10.93;4.82;;;5.90;77.40;;;;;;5173323;28;20593;-78
2022/02/12 14:42:29;;;;;;;8.32;4.82;;;6.30;78.10;;;;;;5153510;28;20059;-77
2022/02/12 14:45:02;;;;;;;12.75;5.80;;;6.20;78.20;;;;;;5169297;28;20041;-78
2022/02/12 14:47:35;;;;;;;9.80;4.50;;;6.20;77.10;;;;;;5161022;28;20049;-78
2022/02/12 14:50:08;;;;;;;8.30;5.07;;;6.20;78.30;;;;;;5161104;28;20045;-78
2022/02/12 14:52:40;;;;;;;7.95;4.65;;;6.20;76.80;;;;;;5141709;28;20489;-77
2022/02/12 14:55:13;;;;;;;6.57;4.25;;;8.40;78.50;;;;;;5178825;28;20049;-77
2022/02/12 14:57:45;;;;;;;8.82;4.43;;;6.30;77.90;;;;;;5180268;28;20231;-78
2022/02/12 15:00:18;;;;;;;7.75;4.32;;;6.40;77.50;;;;;;5187073;28;20485;-77
2022/02/12 15:02:51;;;;;;;8.07;4.33;;;6.40;78.30;;;;;;5177406;28;20068;-77